Time;durP1;ratioP1;P1;durP2;ratioP2;P2;SDS_P1;SDS_P2;PMS_P1;PMS_P2;Temp;Humidity;BMP_temperature;BMP_pressure;BME280_temperature;BME280_humidity;BME280_pressure;Samples;Min_cycle;Max_cycle;Signal;HPM_P1;HPM_P2
2023/12/16 00:00:18;;;;;;;5.07;2.85;;;;;;;;;;5003858;28;20128;-76
2023/12/16 00:02:44;;;;;;;7.50;3.05;;;;;;;;;;4997954;28;20465;-76
2023/12/16 00:05:09;;;;;;;12.27;4.03;;;;;;;;;;4998762;28;20045;-76
2023/12/16 00:07:35;;;;;;;6.65;3.20;;;;;;;;;;4995233;28;20041;-76
2023/12/16 00:10:00;;;;;;;9.45;3.42;;;;;;;;;;4998734;28;20034;-76
2023/12/16 00:12:26;;;;;;;11.43;4.20;;;;;;;;;;5010267;28;20046;-76
2023/12/16 00:14:51;;;;;;;7.00;3.47;;;;;;;;;;5001928;28;20104;-76
2023/12/16 00:17:17;;;;;;;10.63;3.35;;;;;;;;;;5002710;28;20096;-76
2023/12/16 00:19:42;;;;;;;7.38;3.85;;;;;;;;;;5009926;28;20030;-76
2023/12/16 00:22:07;;;;;;;13.18;3.72;;;;;;;;;;4991990;28;20093;-76
2023/12/16 00:24:33;;;;;;;9.75;3.72;;;;;;;;;;4997509;28;20092;-77
2023/12/16 00:26:58;;;;;;;6.10;3.03;;;;;;;;;;4997572;28;20525;-76
2023/12/16 00:29:24;;;;;;;9.23;3.67;;;;;;;;;;5005655;28;20045;-76
2023/12/16 00:31:49;;;;;;;11.18;3.75;;;;;;;;;;5008770;28;20559;-76
2023/12/16 00:34:15;;;;;;;6.88;3.47;;;;;;;;;;5004786;28;20034;-76
2023/12/16 00:36:41;;;;;;;9.48;3.30;;;;;;;;;;5006686;28;20041;-76
2023/12/16 00:39:07;;;;;;;8.93;3.58;;;;;;;;;;5013576;28;20049;-76
2023/12/16 00:41:33;;;;;;;8.30;2.53;;;;;;;;;;5011056;28;20033;-76
2023/12/16 00:43:58;;;;;;;8.02;3.70;;;;;;;;;;5005770;28;20038;-76
2023/12/16 00:46:24;;;;;;;8.63;3.40;;;;;;;;;;4982030;28;20412;-77
2023/12/16 00:48:49;;;;;;;7.80;3.50;;;;;;;;;;4997507;28;20040;-77
2023/12/16 00:51:14;;;;;;;6.00;2.63;;;;;;;;;;4997292;28;20073;-76
2023/12/16 00:53:40;;;;;;;7.97;3.90;;;;;;;;;;4996380;28;20045;-76
2023/12/16 00:56:06;;;;;;;11.32;3.70;;;;;;;;;;4977078;28;20488;-77
2023/12/16 00:58:31;;;;;;;5.38;2.95;;;;;;;;;;4996078;28;20518;-77
2023/12/16 01:00:56;;;;;;;9.57;3.33;;;;;;;;;;5009831;28;20038;-77
2023/12/16 01:03:22;;;;;;;8.45;3.55;;;;;;;;;;4994367;28;20112;-76
2023/12/16 01:05:47;;;;;;;6.00;2.90;;;;;;;;;;4997180;28;20049;-76
2023/12/16 01:08:13;;;;;;;6.13;3.03;;;;;;;;;;5009717;28;20026;-77
2023/12/16 01:10:38;;;;;;;9.43;3.35;;;;;;;;;;4998902;28;20533;-77
2023/12/16 01:13:04;;;;;;;8.45;3.08;;;;;;;;;;4985766;28;20570;-77
2023/12/16 01:15:30;;;;;;;8.13;2.92;;;;;;;;;;5008414;28;20050;-76
2023/12/16 01:17:55;;;;;;;9.13;3.10;;;;;;;;;;5013058;28;20037;-77
2023/12/16 01:20:20;;;;;;;8.93;4.03;;;;;;;;;;5015475;28;20047;-77
2023/12/16 01:22:46;;;;;;;11.15;3.75;;;;;;;;;;5015971;28;20037;-76
2023/12/16 01:25:11;;;;;;;9.15;3.45;;;;;;;;;;5016556;28;20029;-76
2023/12/16 01:27:37;;;;;;;9.82;3.63;;;;;;;;;;4986422;28;20521;-76
2023/12/16 01:30:03;;;;;;;6.30;3.13;;;;;;;;;;4996134;28;20034;-76
2023/12/16 01:32:29;;;;;;;9.90;3.63;;;;;;;;;;4996642;28;20099;-76
2023/12/16 01:34:54;;;;;;;7.53;3.78;;;;;;;;;;4980869;28;20033;-76
2023/12/16 01:37:20;;;;;;;6.80;3.15;;;;;;;;;;4978799;28;20041;-76
2023/12/16 01:39:45;;;;;;;10.75;4.55;;;;;;;;;;4993604;28;20048;-77
2023/12/16 01:42:11;;;;;;;8.52;4.38;;;;;;;;;;4989361;28;20142;-76
2023/12/16 01:44:36;;;;;;;6.30;3.47;;;;;;;;;;4997429;28;20048;-77
2023/12/16 01:47:02;;;;;;;11.80;3.90;;;;;;;;;;4996123;28;20104;-77
2023/12/16 01:49:28;;;;;;;10.25;3.88;;;;;;;;;;5013157;28;20387;-77
2023/12/16 01:51:53;;;;;;;10.20;5.30;;;;;;;;;;5014892;28;20045;-77
2023/12/16 01:54:20;;;;;;;6.40;3.08;;;;;;;;;;5005915;28;20052;-77
2023/12/16 01:56:55;;;;;;;8.70;4.50;;;;;;;;;;4995998;28;20034;-77
2023/12/16 01:59:21;;;;;;;8.55;4.10;;;;;;;;;;4995875;28;20041;-76
2023/12/16 02:01:47;;;;;;;11.30;4.93;;;;;;;;;;4995364;28;20088;-76
2023/12/16 02:04:13;;;;;;;8.88;3.95;;;;;;;;;;4999573;28;20033;-76
2023/12/16 02:06:39;;;;;;;13.23;4.88;;;;;;;;;;4997389;28;20038;-77
2023/12/16 02:09:06;;;;;;;10.80;4.43;;;;;;;;;;4987996;28;20038;-77
2023/12/16 02:11:31;;;;;;;10.48;4.85;;;;;;;;;;5009923;28;20669;-77
2023/12/16 02:13:56;;;;;;;6.70;3.53;;;;;;;;;;4996027;28;20044;-77
2023/12/16 02:16:22;;;;;;;11.05;4.20;;;;;;;;;;5003132;28;20052;-77
2023/12/16 02:18:49;;;;;;;7.82;4.13;;;;;;;;;;5012109;28;20037;-77
2023/12/16 02:21:14;;;;;;;11.27;4.45;;;;;;;;;;4998740;28;20034;-77
2023/12/16 02:23:41;;;;;;;9.18;4.47;;;;;;;;;;4987863;28;20037;-77
2023/12/16 02:26:07;;;;;;;12.38;4.30;;;;;;;;;;5001734;28;20068;-77
2023/12/16 02:28:32;;;;;;;14.02;5.00;;;;;;;;;;5013516;28;20533;-77
2023/12/16 02:30:57;;;;;;;13.18;5.18;;;;;;;;;;5009670;28;20033;-77
2023/12/16 02:33:23;;;;;;;8.48;4.00;;;;;;;;;;5013277;28;20471;-77
2023/12/16 02:35:48;;;;;;;7.85;3.90;;;;;;;;;;5000793;28;20038;-76
2023/12/16 02:38:13;;;;;;;11.23;5.10;;;;;;;;;;4991946;28;20740;-76
2023/12/16 02:40:42;;;;;;;11.15;4.85;;;;;;;;;;4994506;28;20041;-76
2023/12/16 02:43:10;;;;;;;11.10;5.30;;;;;;;;;;4996046;28;20162;-76
2023/12/16 02:45:36;;;;;;;10.85;4.40;;;;;;;;;;4994159;28;20065;-76
2023/12/16 02:48:01;;;;;;;9.60;4.22;;;;;;;;;;4978920;28;20058;-76
2023/12/16 02:50:26;;;;;;;9.20;4.40;;;;;;;;;;4993436;28;20132;-75
2023/12/16 02:52:52;;;;;;;11.93;5.10;;;;;;;;;;4998419;28;20521;-76
2023/12/16 02:55:18;;;;;;;11.13;4.72;;;;;;;;;;5007237;28;20042;-76
2023/12/16 02:57:44;;;;;;;4.45;2.83;;;;;;;;;;5000289;28;20129;-76
2023/12/16 03:00:10;;;;;;;4.35;2.58;;;;;;;;;;5007243;28;20120;-77
2023/12/16 03:02:36;;;;;;;10.20;4.63;;;;;;;;;;5012823;28;20501;-77
2023/12/16 03:05:02;;;;;;;13.25;5.05;;;;;;;;;;5001584;28;20033;-77
2023/12/16 03:07:27;;;;;;;9.85;4.38;;;;;;;;;;5010533;28;20041;-77
2023/12/16 03:09:52;;;;;;;12.57;5.82;;;;;;;;;;4985889;28;20045;-77
2023/12/16 03:12:18;;;;;;;7.97;3.63;;;;;;;;;;4997686;28;20506;-77
2023/12/16 03:14:43;;;;;;;14.98;4.65;;;;;;;;;;4994703;28;20116;-77
2023/12/16 03:17:09;;;;;;;7.90;3.78;;;;;;;;;;4998661;28;20157;-77
2023/12/16 03:19:34;;;;;;;7.65;3.40;;;;;;;;;;4988325;28;20046;-77
2023/12/16 03:21:59;;;;;;;8.10;3.97;;;;;;;;;;5003371;28;20494;-77
2023/12/16 03:24:25;;;;;;;9.85;3.78;;;;;;;;;;5001075;28;20076;-77
2023/12/16 03:26:50;;;;;;;12.63;4.68;;;;;;;;;;5018069;28;20162;-77
2023/12/16 03:29:16;;;;;;;7.50;3.83;;;;;;;;;;5015388;28;20493;-77
2023/12/16 03:31:41;;;;;;;10.18;4.28;;;;;;;;;;5017091;28;20482;-76
2023/12/16 03:34:06;;;;;;;8.10;3.75;;;;;;;;;;5006952;28;20040;-76
2023/12/16 03:36:32;;;;;;;8.60;3.30;;;;;;;;;;5001709;28;20095;-77
2023/12/16 03:38:57;;;;;;;8.30;3.60;;;;;;;;;;5011280;28;20057;-76
2023/12/16 03:41:23;;;;;;;8.20;3.35;;;;;;;;;;4998060;28;20041;-77
2023/12/16 03:43:48;;;;;;;10.80;3.47;;;;;;;;;;5009447;28;20127;-77
2023/12/16 03:46:13;;;;;;;8.93;3.50;;;;;;;;;;5002094;28;20392;-76
2023/12/16 03:48:39;;;;;;;5.68;3.25;;;;;;;;;;4998253;28;20140;-77
2023/12/16 03:51:04;;;;;;;5.72;2.78;;;;;;;;;;5010425;28;20037;-77
2023/12/16 03:53:30;;;;;;;9.52;3.97;;;;;;;;;;4998315;28;20045;-76
2023/12/16 03:55:55;;;;;;;7.30;3.17;;;;;;;;;;4983200;28;20036;-76
2023/12/16 03:58:20;;;;;;;8.55;3.33;;;;;;;;;;5011420;28;20033;-76
2023/12/16 04:00:46;;;;;;;9.02;3.30;;;;;;;;;;5015447;28;20042;-77
2023/12/16 04:03:11;;;;;;;4.80;2.75;;;;;;;;;;5004295;28;20056;-77
2023/12/16 04:05:37;;;;;;;7.75;3.10;;;;;;;;;;5015800;28;20120;-77
2023/12/16 04:08:03;;;;;;;5.28;3.00;;;;;;;;;;4999721;28;20600;-77
2023/12/16 04:10:29;;;;;;;7.50;3.05;;;;;;;;;;4998363;28;20038;-77
2023/12/16 04:12:54;;;;;;;9.60;3.67;;;;;;;;;;4998875;28;20065;-77
2023/12/16 04:15:20;;;;;;;7.68;3.15;;;;;;;;;;4997781;28;20064;-77
2023/12/16 04:17:45;;;;;;;2.28;1.58;;;;;;;;;;5006068;28;20820;-76
2023/12/16 04:20:10;;;;;;;8.85;3.58;;;;;;;;;;5014696;28;20112;-77
2023/12/16 04:22:37;;;;;;;7.88;3.40;;;;;;;;;;5009582;28;20046;-77
2023/12/16 04:25:09;;;;;;;10.32;3.63;;;;;;;;;;5015880;28;20037;-76
2023/12/16 04:27:34;;;;;;;6.60;2.92;;;;;;;;;;5016105;28;20148;-77
2023/12/16 04:30:00;;;;;;;8.10;3.47;;;;;;;;;;4994265;28;20158;-77
2023/12/16 04:32:25;;;;;;;6.25;3.22;;;;;;;;;;5013968;28;20383;-77
2023/12/16 04:34:51;;;;;;;10.27;2.92;;;;;;;;;;5016822;28;20573;-77
2023/12/16 04:37:16;;;;;;;8.25;3.22;;;;;;;;;;5003945;28;20042;-77
2023/12/16 04:39:42;;;;;;;8.77;4.13;;;;;;;;;;5008353;28;20845;-76
2023/12/16 04:42:09;;;;;;;4.35;2.55;;;;;;;;;;5003525;28;20042;-78
2023/12/16 04:44:36;;;;;;;9.98;3.85;;;;;;;;;;4988578;28;20034;-78
2023/12/16 04:47:02;;;;;;;12.52;4.20;;;;;;;;;;4997959;28;20454;-77
2023/12/16 04:49:27;;;;;;;9.32;3.70;;;;;;;;;;5003960;28;20037;-78
2023/12/16 04:51:53;;;;;;;10.25;3.28;;;;;;;;;;5011297;28;20037;-78
2023/12/16 04:54:18;;;;;;;4.88;2.03;;;;;;;;;;5033735;23;20054;-74
2023/12/16 04:56:44;;;;;;;8.98;3.22;;;;;;;;;;4993835;28;20093;-74
2023/12/16 04:59:09;;;;;;;10.75;4.20;;;;;;;;;;4969698;28;20108;-76
2023/12/16 05:01:34;;;;;;;10.52;4.20;;;;;;;;;;4980575;28;20045;-74
2023/12/16 05:04:00;;;;;;;7.47;3.20;;;;;;;;;;5015145;28;20037;-74
2023/12/16 05:06:25;;;;;;;6.85;2.97;;;;;;;;;;5018556;28;20136;-73
2023/12/16 05:08:51;;;;;;;5.90;2.40;;;;;;;;;;5016398;28;20039;-74
2023/12/16 05:11:16;;;;;;;9.05;3.30;;;;;;;;;;5015247;28;20043;-75
2023/12/16 05:13:42;;;;;;;4.53;2.13;;;;;;;;;;5003883;28;20260;-74
2023/12/16 05:16:08;;;;;;;7.10;2.95;;;;;;;;;;5013217;28;20073;-75
2023/12/16 05:18:33;;;;;;;4.28;2.30;;;;;;;;;;5013659;28;20496;-74
2023/12/16 05:20:59;;;;;;;10.65;3.30;;;;;;;;;;5013569;28;20045;-74
2023/12/16 05:23:24;;;;;;;6.32;2.47;;;;;;;;;;5001657;28;20324;-74
2023/12/16 05:25:49;;;;;;;10.77;3.75;;;;;;;;;;5011995;28;20061;-75
2023/12/16 05:28:15;;;;;;;4.20;2.65;;;;;;;;;;5005620;28;20069;-74
2023/12/16 05:30:40;;;;;;;7.68;3.72;;;;;;;;;;5015204;28;21528;-74
2023/12/16 05:33:05;;;;;;;5.32;3.00;;;;;;;;;;5015871;28;20044;-73
2023/12/16 05:35:31;;;;;;;8.18;3.55;;;;;;;;;;5015704;28;20061;-74
2023/12/16 05:37:57;;;;;;;8.35;3.15;;;;;;;;;;5015226;28;20037;-75
2023/12/16 05:40:22;;;;;;;5.57;2.95;;;;;;;;;;5015513;28;20034;-75
2023/12/16 05:42:48;;;;;;;9.23;3.38;;;;;;;;;;5005448;28;20053;-75
2023/12/16 05:45:13;;;;;;;6.72;3.28;;;;;;;;;;5013011;28;20033;-75
2023/12/16 05:47:39;;;;;;;5.93;2.92;;;;;;;;;;5003217;28;20468;-75
2023/12/16 05:50:05;;;;;;;9.68;4.32;;;;;;;;;;5013259;28;20044;-75
2023/12/16 05:52:31;;;;;;;7.50;3.17;;;;;;;;;;5009180;28;20038;-75
2023/12/16 05:54:57;;;;;;;7.28;3.45;;;;;;;;;;5007167;28;20037;-75
2023/12/16 05:57:22;;;;;;;7.47;3.55;;;;;;;;;;4980996;28;20050;-74
2023/12/16 05:59:48;;;;;;;10.05;3.10;;;;;;;;;;5000845;28;20414;-74
2023/12/16 06:02:13;;;;;;;6.03;3.03;;;;;;;;;;5015958;28;20034;-74
2023/12/16 06:04:38;;;;;;;5.47;2.58;;;;;;;;;;5013431;28;20135;-75
2023/12/16 06:07:04;;;;;;;7.95;3.13;;;;;;;;;;5015131;28;20029;-74
2023/12/16 06:09:29;;;;;;;6.53;3.17;;;;;;;;;;5015502;28;20614;-74
2023/12/16 06:11:58;;;;;;;7.95;3.60;;;;;;;;;;4997652;28;20529;-74
2023/12/16 06:14:23;;;;;;;6.03;2.80;;;;;;;;;;4996176;28;20506;-76
2023/12/16 06:16:49;;;;;;;10.55;3.25;;;;;;;;;;5010725;28;20059;-74
2023/12/16 06:19:14;;;;;;;8.80;3.53;;;;;;;;;;5006682;28;20034;-76
2023/12/16 06:21:39;;;;;;;10.77;3.30;;;;;;;;;;5012425;28;20044;-75
2023/12/16 06:24:08;;;;;;;6.43;2.75;;;;;;;;;;5009070;28;20041;-75
2023/12/16 06:26:33;;;;;;;9.35;2.97;;;;;;;;;;4992759;28;20072;-74
2023/12/16 06:28:59;;;;;;;9.07;3.50;;;;;;;;;;5005657;28;20497;-75
2023/12/16 06:31:24;;;;;;;6.95;2.53;;;;;;;;;;4999273;28;20057;-74
2023/12/16 06:33:50;;;;;;;7.28;3.03;;;;;;;;;;5005546;28;20587;-74
2023/12/16 06:36:15;;;;;;;7.22;2.33;;;;;;;;;;5006111;28;20029;-75
2023/12/16 06:38:41;;;;;;;6.55;2.55;;;;;;;;;;4987634;28;20135;-74
2023/12/16 06:41:06;;;;;;;11.30;3.08;;;;;;;;;;4980879;28;20042;-74
2023/12/16 06:43:31;;;;;;;3.92;2.00;;;;;;;;;;5001695;28;20057;-75
2023/12/16 06:45:57;;;;;;;9.00;2.65;;;;;;;;;;4993652;28;20713;-74
2023/12/16 06:48:22;;;;;;;5.97;2.20;;;;;;;;;;4997817;28;20037;-74
2023/12/16 06:50:49;;;;;;;5.03;2.60;;;;;;;;;;5008150;28;20563;-75
2023/12/16 06:53:15;;;;;;;7.57;2.72;;;;;;;;;;4995155;28;20156;-75
2023/12/16 06:55:41;;;;;;;5.32;2.22;;;;;;;;;;5006917;28;20072;-74
2023/12/16 06:58:06;;;;;;;10.60;2.78;;;;;;;;;;5010046;28;20041;-76
2023/12/16 07:00:31;;;;;;;7.68;2.78;;;;;;;;;;5013213;28;20124;-76
2023/12/16 07:02:57;;;;;;;5.07;1.88;;;;;;;;;;5013456;28;20025;-75
2023/12/16 07:05:22;;;;;;;4.22;2.03;;;;;;;;;;5011407;28;20064;-77
2023/12/16 07:07:47;;;;;;;2.92;1.85;;;;;;;;;;5001858;28;20460;-76
2023/12/16 07:10:13;;;;;;;3.17;2.13;;;;;;;;;;5013522;28;20156;-76
2023/12/16 07:12:38;;;;;;;7.78;3.00;;;;;;;;;;4997176;28;20124;-78
2023/12/16 07:15:04;;;;;;;4.40;2.30;;;;;;;;;;5014337;28;20041;-76
2023/12/16 07:17:30;;;;;;;7.95;2.78;;;;;;;;;;5008584;28;20049;-76
2023/12/16 07:19:55;;;;;;;4.57;2.60;;;;;;;;;;5014398;28;20029;-77
2023/12/16 07:22:21;;;;;;;6.47;2.67;;;;;;;;;;5003889;28;20079;-78
2023/12/16 07:24:47;;;;;;;5.78;2.70;;;;;;;;;;5011612;28;20029;-76
2023/12/16 07:27:12;;;;;;;5.90;2.58;;;;;;;;;;5013177;28;20080;-77
2023/12/16 07:29:37;;;;;;;7.32;2.58;;;;;;;;;;4997767;28;20041;-78
2023/12/16 07:32:03;;;;;;;15.85;4.00;;;;;;;;;;5013764;28;20061;-76
2023/12/16 07:34:29;;;;;;;7.53;2.65;;;;;;;;;;5010616;28;20038;-76
2023/12/16 07:36:54;;;;;;;12.15;3.05;;;;;;;;;;4986863;28;20043;-76
2023/12/16 07:39:19;;;;;;;8.65;3.95;;;;;;;;;;5013400;28;20048;-76
2023/12/16 07:41:46;;;;;;;9.70;2.65;;;;;;;;;;5011935;28;20545;-76
2023/12/16 07:44:11;;;;;;;9.27;2.80;;;;;;;;;;4997311;28;20034;-75
2023/12/16 07:46:39;;;;;;;3.15;2.22;;;;;;;;;;5011547;28;20044;-75
2023/12/16 07:49:04;;;;;;;11.25;2.95;;;;;;;;;;5006679;28;20038;-76
2023/12/16 07:51:30;;;;;;;6.07;2.38;;;;;;;;;;5001145;28;20548;-76
2023/12/16 07:53:55;;;;;;;6.40;2.70;;;;;;;;;;5013547;28;20033;-75
2023/12/16 07:56:23;;;;;;;3.63;2.17;;;;;;;;;;5010204;28;20039;-76
2023/12/16 07:58:50;;;;;;;8.02;3.10;;;;;;;;;;5009447;28;20565;-77
2023/12/16 08:01:16;;;;;;;7.65;2.50;;;;;;;;;;5013637;28;20065;-76
2023/12/16 08:03:42;;;;;;;5.30;2.88;;;;;;;;;;5015785;28;20046;-76
2023/12/16 08:06:10;;;;;;;5.53;3.30;;;;;;;;;;5007322;28;20030;-76
2023/12/16 08:08:37;;;;;;;13.23;2.97;;;;;;;;;;5016415;28;20096;-76
2023/12/16 08:11:04;;;;;;;10.48;3.05;;;;;;;;;;5012059;28;20518;-77
2023/12/16 08:13:29;;;;;;;5.15;2.50;;;;;;;;;;4996467;28;20136;-76
2023/12/16 08:15:55;;;;;;;6.93;2.38;;;;;;;;;;5001293;28;20800;-75
2023/12/16 08:18:20;;;;;;;9.35;2.97;;;;;;;;;;5005283;28;20041;-74
2023/12/16 08:20:45;;;;;;;9.65;2.70;;;;;;;;;;5016429;28;20033;-74
2023/12/16 08:23:11;;;;;;;10.10;2.97;;;;;;;;;;5017605;28;20075;-77
2023/12/16 08:25:36;;;;;;;7.93;2.88;;;;;;;;;;5017702;28;20954;-76
2023/12/16 08:28:01;;;;;;;5.50;2.67;;;;;;;;;;5009699;28;20030;-75
2023/12/16 08:30:27;;;;;;;5.90;2.50;;;;;;;;;;5010973;28;20179;-75
2023/12/16 08:32:53;;;;;;;6.60;2.28;;;;;;;;;;5006942;28;20111;-75
2023/12/16 08:35:18;;;;;;;4.15;2.00;;;;;;;;;;5016759;28;20126;-75
2023/12/16 08:37:44;;;;;;;10.18;2.90;;;;;;;;;;5016843;28;20492;-75
2023/12/16 08:40:10;;;;;;;3.53;2.03;;;;;;;;;;5016023;28;20044;-77
2023/12/16 08:42:35;;;;;;;5.05;2.25;;;;;;;;;;5015361;28;20045;-75
2023/12/16 08:45:02;;;;;;;7.38;2.67;;;;;;;;;;5016949;28;20144;-75
2023/12/16 08:47:27;;;;;;;5.95;2.58;;;;;;;;;;5005185;28;20059;-77
2023/12/16 08:49:53;;;;;;;9.48;2.90;;;;;;;;;;5001167;28;20037;-75
2023/12/16 08:52:18;;;;;;;5.65;2.63;;;;;;;;;;5014617;28;20382;-75
2023/12/16 08:54:44;;;;;;;8.05;2.70;;;;;;;;;;5016205;28;20132;-75
2023/12/16 08:57:10;;;;;;;6.13;2.25;;;;;;;;;;5017559;28;20444;-75
2023/12/16 08:59:35;;;;;;;4.95;2.22;;;;;;;;;;5014733;28;20085;-77
2023/12/16 09:02:02;;;;;;;8.38;3.03;;;;;;;;;;4990318;28;20030;-75
2023/12/16 09:04:27;;;;;;;8.05;2.65;;;;;;;;;;5014828;28;20041;-75
2023/12/16 09:06:54;;;;;;;7.40;2.45;;;;;;;;;;5016284;28;20032;-75
2023/12/16 09:09:19;;;;;;;5.85;2.17;;;;;;;;;;5015241;28;20129;-74
2023/12/16 09:11:45;;;;;;;13.38;2.78;;;;;;;;;;5015830;28;20229;-73
2023/12/16 09:14:10;;;;;;;8.90;2.35;;;;;;;;;;5015008;28;20087;-75
2023/12/16 09:16:36;;;;;;;7.93;2.47;;;;;;;;;;5004476;28;20050;-73
2023/12/16 09:19:01;;;;;;;8.63;2.17;;;;;;;;;;5016318;28;20045;-74
2023/12/16 09:21:26;;;;;;;12.45;3.10;;;;;;;;;;5011005;28;20047;-76
2023/12/16 09:23:52;;;;;;;4.95;1.80;;;;;;;;;;5014718;28;20445;-78
2023/12/16 09:26:17;;;;;;;6.82;2.30;;;;;;;;;;5009296;28;20041;-77
2023/12/16 09:28:43;;;;;;;4.00;2.13;;;;;;;;;;5015291;28;20409;-72
2023/12/16 09:31:08;;;;;;;5.15;2.95;;;;;;;;;;5005192;28;20037;-73
2023/12/16 09:33:33;;;;;;;8.20;2.50;;;;;;;;;;5015109;28;20037;-74
2023/12/16 09:35:59;;;;;;;4.55;2.47;;;;;;;;;;5015199;28;20103;-72
2023/12/16 09:38:24;;;;;;;4.88;1.90;;;;;;;;;;5015400;28;20030;-73
2023/12/16 09:40:50;;;;;;;6.90;2.17;;;;;;;;;;5015977;28;20528;-73
2023/12/16 09:43:16;;;;;;;3.47;1.45;;;;;;;;;;5011868;28;20073;-71
2023/12/16 09:45:49;;;;;;;10.07;2.50;;;;;;;;;;5003189;28;20090;-72
2023/12/16 09:48:17;;;;;;;7.82;2.40;;;;;;;;;;5014036;28;20041;-70
2023/12/16 09:50:43;;;;;;;2.70;1.85;;;;;;;;;;5015099;28;20034;-72
2023/12/16 09:53:09;;;;;;;8.65;3.05;;;;;;;;;;5014056;28;20041;-71
2023/12/16 09:55:34;;;;;;;3.90;1.95;;;;;;;;;;5015030;28;20123;-71
2023/12/16 09:58:02;;;;;;;7.15;3.00;;;;;;;;;;4998743;28;20061;-71
2023/12/16 10:00:28;;;;;;;5.95;2.65;;;;;;;;;;5003567;28;20419;-75
2023/12/16 10:02:56;;;;;;;6.07;2.55;;;;;;;;;;5011423;28;20414;-71
2023/12/16 10:05:26;;;;;;;9.00;2.05;;;;;;;;;;4999363;28;20029;-71
2023/12/16 10:07:59;;;;;;;6.28;2.20;;;;;;;;;;5008335;28;20517;-70
2023/12/16 10:10:24;;;;;;;7.88;2.55;;;;;;;;;;5013550;28;20037;-72
2023/12/16 10:12:50;;;;;;;7.75;2.30;;;;;;;;;;5004474;28;20033;-70
2023/12/16 10:15:32;;;;;;;6.70;2.65;;;;;;;;;;5020168;28;20071;-71
2023/12/16 10:18:02;;;;;;;9.43;2.50;;;;;;;;;;5015357;28;20042;-72
2023/12/16 10:20:29;;;;;;;8.32;2.30;;;;;;;;;;5013607;28;20133;-73
2023/12/16 10:22:55;;;;;;;9.02;2.40;;;;;;;;;;5016195;28;20842;-72
2023/12/16 10:25:21;;;;;;;8.70;2.33;;;;;;;;;;5003614;28;20046;-71
2023/12/16 10:27:48;;;;;;;5.82;2.67;;;;;;;;;;4999265;28;20056;-74
2023/12/16 10:30:14;;;;;;;4.05;1.67;;;;;;;;;;5013958;28;20041;-71
2023/12/16 10:32:40;;;;;;;7.35;3.13;;;;;;;;;;5015096;28;20041;-71
2023/12/16 10:35:07;;;;;;;14.18;3.30;;;;;;;;;;5015348;28;20033;-70
2023/12/16 10:37:33;;;;;;;4.85;1.65;;;;;;;;;;5006882;28;20109;-72
2023/12/16 10:40:00;;;;;;;10.00;2.92;;;;;;;;;;5014074;28;20128;-70
2023/12/16 10:42:25;;;;;;;11.00;3.30;;;;;;;;;;5014165;28;20041;-72
2023/12/16 10:44:53;;;;;;;10.70;3.47;;;;;;;;;;5018356;28;20044;-70
2023/12/16 10:47:19;;;;;;;9.48;2.92;;;;;;;;;;5016635;28;20375;-73
2023/12/16 10:49:46;;;;;;;6.32;3.88;;;;;;;;;;5014544;28;20049;-71
2023/12/16 10:52:13;;;;;;;11.38;3.45;;;;;;;;;;4968488;28;20454;-71
2023/12/16 10:54:46;;;;;;;6.97;2.50;;;;;;;;;;5007948;28;20046;-70
2023/12/16 10:57:29;;;;;;;8.10;2.53;;;;;;;;;;5001100;28;20026;-70
2023/12/16 11:00:05;;;;;;;9.57;2.92;;;;;;;;;;5010926;28;20488;-74
2023/12/16 11:02:32;;;;;;;10.02;3.90;;;;;;;;;;5007124;28;20053;-70
2023/12/16 11:05:14;;;;;;;7.28;3.10;;;;;;;;;;4994069;28;20083;-74
2023/12/16 11:07:41;;;;;;;17.65;5.55;;;;;;;;;;5014700;28;20029;-71
2023/12/16 11:10:09;;;;;;;10.90;3.60;;;;;;;;;;5014504;28;20034;-71
2023/12/16 11:12:37;;;;;;;10.20;2.80;;;;;;;;;;5014195;28;20037;-70
2023/12/16 11:15:04;;;;;;;5.55;2.75;;;;;;;;;;4991529;28;20132;-70
2023/12/16 11:17:35;;;;;;;7.05;3.28;;;;;;;;;;5014372;28;20053;-70
2023/12/16 11:20:21;;;;;;;8.65;3.42;;;;;;;;;;5005215;28;20045;-74
2023/12/16 11:22:51;;;;;;;8.93;3.35;;;;;;;;;;5013025;28;20065;-72
2023/12/16 11:25:20;;;;;;;10.02;3.45;;;;;;;;;;5013869;28;20382;-69
2023/12/16 11:27:50;;;;;;;9.05;3.15;;;;;;;;;;5002414;28;20043;-69
2023/12/16 11:30:17;;;;;;;9.85;3.55;;;;;;;;;;5006809;28;20042;-75
2023/12/16 11:32:44;;;;;;;8.45;2.85;;;;;;;;;;5003526;28;20397;-70
2023/12/16 11:35:10;;;;;;;10.05;3.00;;;;;;;;;;5004589;28;20033;-73
2023/12/16 11:37:36;;;;;;;14.70;4.93;;;;;;;;;;4998292;28;20141;-72
2023/12/16 11:40:07;;;;;;;6.18;2.00;;;;;;;;;;4988719;28;20546;-70
2023/12/16 11:42:48;;;;;;;7.65;3.88;;;;;;;;;;4988741;28;20044;-71
2023/12/16 11:45:38;;;;;;;2.88;1.67;;;;;;;;;;4993402;28;20033;-73
2023/12/16 11:48:08;;;;;;;8.82;3.00;;;;;;;;;;5005649;28;20584;-72
2023/12/16 11:50:36;;;;;;;3.20;1.77;;;;;;;;;;5000061;28;20542;-72
2023/12/16 11:53:03;;;;;;;8.32;3.28;;;;;;;;;;5010214;28;20045;-72
2023/12/16 11:55:28;;;;;;;7.70;2.80;;;;;;;;;;5010356;28;20117;-71
2023/12/16 11:57:54;;;;;;;9.00;4.10;;;;;;;;;;5008974;28;20120;-72
2023/12/16 12:00:20;;;;;;;10.73;3.13;;;;;;;;;;5006359;28;20518;-70
2023/12/16 12:02:48;;;;;;;11.13;2.67;;;;;;;;;;4997554;28;20065;-71
2023/12/16 12:05:14;;;;;;;5.50;2.08;;;;;;;;;;4999202;28;20057;-70
2023/12/16 12:07:39;;;;;;;7.55;2.78;;;;;;;;;;5008322;28;20030;-69
2023/12/16 12:10:05;;;;;;;11.18;2.90;;;;;;;;;;5011547;28;20041;-73
2023/12/16 12:12:31;;;;;;;8.43;2.75;;;;;;;;;;5012283;28;20037;-73
2023/12/16 12:14:56;;;;;;;11.40;2.90;;;;;;;;;;5011934;28;20087;-70
2023/12/16 12:17:22;;;;;;;6.63;2.13;;;;;;;;;;4991228;28;20041;-71
2023/12/16 12:19:50;;;;;;;8.25;2.65;;;;;;;;;;5017218;28;20490;-73
2023/12/16 12:22:19;;;;;;;9.65;2.50;;;;;;;;;;5017336;28;20037;-72
2023/12/16 12:24:44;;;;;;;8.68;2.10;;;;;;;;;;5017176;28;20188;-69
2023/12/16 12:27:10;;;;;;;8.20;2.22;;;;;;;;;;5018315;28;20109;-73
2023/12/16 12:29:57;;;;;;;7.38;2.30;;;;;;;;;;5016678;28;20048;-70
2023/12/16 12:32:26;;;;;;;2.90;1.25;;;;;;;;;;4972693;28;20043;-73
2023/12/16 12:35:05;;;;;;;7.75;2.40;;;;;;;;;;5017419;28;20600;-69
2023/12/16 12:37:35;;;;;;;4.70;1.30;;;;;;;;;;5015385;28;20064;-71
2023/12/16 12:40:00;;;;;;;3.10;1.30;;;;;;;;;;5017171;28;20036;-69
2023/12/16 12:42:26;;;;;;;7.32;2.15;;;;;;;;;;5009822;28;20041;-72
2023/12/16 12:44:52;;;;;;;8.05;2.38;;;;;;;;;;5015831;28;20041;-73
2023/12/16 12:47:32;;;;;;;5.10;2.22;;;;;;;;;;5015880;28;20037;-69
2023/12/16 12:50:01;;;;;;;5.97;2.17;;;;;;;;;;5010303;28;20557;-72
2023/12/16 12:52:39;;;;;;;11.70;2.65;;;;;;;;;;5017106;28;20033;-70
2023/12/16 12:55:05;;;;;;;7.13;2.15;;;;;;;;;;4989598;28;20073;-72
2023/12/16 12:57:32;;;;;;;11.52;2.35;;;;;;;;;;5016778;28;20037;-70
2023/12/16 13:00:00;;;;;;;8.88;2.17;;;;;;;;;;5016563;28;20033;-73
2023/12/16 13:02:26;;;;;;;11.25;2.70;;;;;;;;;;5005569;28;20057;-71
2023/12/16 13:04:51;;;;;;;4.90;1.80;;;;;;;;;;5008899;28;20583;-72
2023/12/16 13:07:19;;;;;;;7.65;2.13;;;;;;;;;;5016422;28;20087;-73
2023/12/16 13:09:45;;;;;;;9.75;2.38;;;;;;;;;;4988273;28;20480;-70
2023/12/16 13:12:10;;;;;;;6.57;1.95;;;;;;;;;;5014431;28;20037;-71
2023/12/16 13:14:40;;;;;;;10.52;2.92;;;;;;;;;;5015257;28;20826;-72
2023/12/16 13:17:06;;;;;;;10.27;2.75;;;;;;;;;;5014286;28;20460;-70
2023/12/16 13:19:31;;;;;;;3.13;1.30;;;;;;;;;;5015935;28;20041;-71
2023/12/16 13:21:56;;;;;;;7.10;2.42;;;;;;;;;;5005965;28;20033;-73
2023/12/16 13:24:22;;;;;;;3.33;1.98;;;;;;;;;;5015894;28;20042;-69
2023/12/16 13:26:47;;;;;;;9.40;2.20;;;;;;;;;;5008242;28;20038;-71
2023/12/16 13:29:13;;;;;;;7.70;2.03;;;;;;;;;;5016456;28;20409;-71
2023/12/16 13:31:38;;;;;;;4.80;1.88;;;;;;;;;;5013566;28;20148;-70
2023/12/16 13:34:03;;;;;;;6.82;2.22;;;;;;;;;;5016211;28;20049;-70
2023/12/16 13:36:29;;;;;;;6.90;2.00;;;;;;;;;;5005577;28;20041;-69
2023/12/16 13:38:55;;;;;;;6.07;1.73;;;;;;;;;;5014153;28;20049;-70
2023/12/16 13:41:20;;;;;;;5.60;1.98;;;;;;;;;;5014957;28;20029;-72
2023/12/16 13:43:49;;;;;;;9.20;2.33;;;;;;;;;;5015421;28;20041;-70
2023/12/16 13:46:14;;;;;;;7.30;2.17;;;;;;;;;;5015854;28;20033;-70
2023/12/16 13:48:39;;;;;;;15.77;6.10;;;;;;;;;;5008207;28;20075;-71
2023/12/16 13:51:05;;;;;;;5.15;1.88;;;;;;;;;;5003958;28;20063;-71
2023/12/16 13:53:30;;;;;;;8.88;1.85;;;;;;;;;;5015460;28;20037;-70
2023/12/16 13:55:55;;;;;;;8.10;2.30;;;;;;;;;;5014432;28;20034;-72
2023/12/16 13:58:22;;;;;;;7.28;2.30;;;;;;;;;;5015457;28;20076;-75
2023/12/16 14:00:48;;;;;;;9.27;2.85;;;;;;;;;;4992179;28;20034;-69
2023/12/16 14:03:13;;;;;;;8.13;2.55;;;;;;;;;;5011907;28;20087;-70
2023/12/16 14:05:38;;;;;;;7.53;2.40;;;;;;;;;;4988685;28;20034;-71
2023/12/16 14:08:04;;;;;;;7.75;2.13;;;;;;;;;;5015184;28;20125;-71
2023/12/16 14:10:29;;;;;;;5.55;1.77;;;;;;;;;;5014604;28;20048;-74
2023/12/16 14:12:55;;;;;;;4.80;1.98;;;;;;;;;;5015472;28;20037;-70
2023/12/16 14:15:20;;;;;;;4.32;2.10;;;;;;;;;;5015977;28;20489;-69
2023/12/16 14:17:45;;;;;;;9.63;3.70;;;;;;;;;;5008373;28;20041;-70
2023/12/16 14:20:11;;;;;;;7.82;2.47;;;;;;;;;;5004893;28;20041;-70
2023/12/16 14:22:36;;;;;;;7.60;2.63;;;;;;;;;;5014452;28;20150;-72
2023/12/16 14:25:04;;;;;;;8.48;2.38;;;;;;;;;;5015716;28;20090;-70
2023/12/16 14:27:29;;;;;;;8.15;2.03;;;;;;;;;;5015385;28;20041;-70
2023/12/16 14:29:55;;;;;;;5.05;2.10;;;;;;;;;;5015459;28;20040;-73
2023/12/16 14:32:21;;;;;;;9.93;2.63;;;;;;;;;;5014675;28;20048;-70
2023/12/16 14:34:46;;;;;;;5.72;2.17;;;;;;;;;;5004670;28;20125;-72